sensor_id;sensor_type;location;lat;lon;timestamp;P1;P2;P0
74440;PMS7003;62870;54.692;25.284;2022-08-27T00:03:31;17;16;11.6
74440;PMS7003;62870;54.692;25.284;2022-08-27T00:08:21;16.2;15.8;12.6
74440;PMS7003;62870;54.692;25.284;2022-08-27T00:13:27;17.2;15.8;11.2
74440;PMS7003;62870;54.692;25.284;2022-08-27T00:18:27;17.5;17;12.5
74440;PMS7003;62870;54.692;25.284;2022-08-27T00:23:25;17;15.2;12
74440;PMS7003;62870;54.692;25.284;2022-08-27T00:28:13;17.6;15.8;12.8
74440;PMS7003;62870;54.692;25.284;2022-08-27T00:33:22;16;15.2;11.2
74440;PMS7003;62870;54.692;25.284;2022-08-27T00:38:34;17.4;16.4;12.6
74440;PMS7003;62870;54.692;25.284;2022-08-27T00:42:53;16.6;16.2;13
74440;PMS7003;62870;54.692;25.284;2022-08-27T00:48:02;15.6;15.2;11.6
74440;PMS7003;62870;54.692;25.284;2022-08-27T00:53:33;16.8;16;11.4
74440;PMS7003;62870;54.692;25.284;2022-08-27T00:58:35;18.4;17.6;12.8
74440;PMS7003;62870;54.692;25.284;2022-08-27T01:03:31;18.6;17.8;13.2
74440;PMS7003;62870;54.692;25.284;2022-08-27T01:08:28;18.4;16.8;11.2
74440;PMS7003;62870;54.692;25.284;2022-08-27T01:13:36;15;14.6;11.8
74440;PMS7003;62870;54.692;25.284;2022-08-27T01:18:34;16.5;15;12.3
74440;PMS7003;62870;54.692;25.284;2022-08-27T01:23:14;15.8;15.2;10.6
74440;PMS7003;62870;54.692;25.284;2022-08-27T01:28:25;15.8;15;11.8
74440;PMS7003;62870;54.692;25.284;2022-08-27T01:32:53;16.4;15;11.6
74440;PMS7003;62870;54.692;25.284;2022-08-27T01:38:01;16.4;14.8;11.2
74440;PMS7003;62870;54.692;25.284;2022-08-27T01:43:14;16.8;16;12.2
74440;PMS7003;62870;54.692;25.284;2022-08-27T01:48:21;17.2;16.6;11.8
74440;PMS7003;62870;54.692;25.284;2022-08-27T01:53:33;17;15.6;12.4
74440;PMS7003;62870;54.692;25.284;2022-08-27T01:58:26;15.6;15.2;11.4
74440;PMS7003;62870;54.692;25.284;2022-08-27T02:03:11;16.2;16;11.6
74440;PMS7003;62870;54.692;25.284;2022-08-27T02:08:36;15.8;14.8;11.8
74440;PMS7003;62870;54.692;25.284;2022-08-27T02:13:11;18.2;17.2;12.8
74440;PMS7003;62870;54.692;25.284;2022-08-27T02:18:39;16.6;15.4;11.6
74440;PMS7003;62870;54.692;25.284;2022-08-27T02:23:05;15;14.8;10.8
74440;PMS7003;62870;54.692;25.284;2022-08-27T02:28:06;16.4;15.8;11.6
74440;PMS7003;62870;54.692;25.284;2022-08-27T02:33:33;16.6;16.4;12
74440;PMS7003;62870;54.692;25.284;2022-08-27T02:38:19;16.8;15;11.4
74440;PMS7003;62870;54.692;25.284;2022-08-27T02:43:15;17.2;16.2;11.4
74440;PMS7003;62870;54.692;25.284;2022-08-27T02:47:55;15.6;15.2;11.4
74440;PMS7003;62870;54.692;25.284;2022-08-27T02:53:28;15;14.4;10
74440;PMS7003;62870;54.692;25.284;2022-08-27T02:58:15;16.6;15.4;12.4
74440;PMS7003;62870;54.692;25.284;2022-08-27T03:03:21;15.4;14.6;11.2
74440;PMS7003;62870;54.692;25.284;2022-08-27T03:08:38;16.8;15.6;11.2
74440;PMS7003;62870;54.692;25.284;2022-08-27T03:13:06;17.2;16;11.6
74440;PMS7003;62870;54.692;25.284;2022-08-27T03:18:05;16;15;11.6
74440;PMS7003;62870;54.692;25.284;2022-08-27T03:23:41;14.3;14.3;10.8
74440;PMS7003;62870;54.692;25.284;2022-08-27T03:28:42;14.6;14.4;11.4
74440;PMS7003;62870;54.692;25.284;2022-08-27T03:33:38;16.6;15.6;11.8
74440;PMS7003;62870;54.692;25.284;2022-08-27T03:38:18;14.8;14.6;11
74440;PMS7003;62870;54.692;25.284;2022-08-27T03:43:42;16.6;15.8;11.4
74440;PMS7003;62870;54.692;25.284;2022-08-27T03:48:41;16.8;15.8;12.4
74440;PMS7003;62870;54.692;25.284;2022-08-27T03:53:08;17.6;17;12.4
74440;PMS7003;62870;54.692;25.284;2022-08-27T03:58:17;19.2;18;12.8
74440;PMS7003;62870;54.692;25.284;2022-08-27T04:03:15;19.8;18.6;14
74440;PMS7003;62870;54.692;25.284;2022-08-27T04:08:18;17;15.8;12.2
74440;PMS7003;62870;54.692;25.284;2022-08-27T04:13:08;17;16.6;12.6
74440;PMS7003;62870;54.692;25.284;2022-08-27T04:18:18;16.2;15.4;11.4
74440;PMS7003;62870;54.692;25.284;2022-08-27T04:23:38;15.3;14.8;11.3
74440;PMS7003;62870;54.692;25.284;2022-08-27T04:28:27;15.2;15;11.2
74440;PMS7003;62870;54.692;25.284;2022-08-27T04:33:16;17.2;16.2;11.8
74440;PMS7003;62870;54.692;25.284;2022-08-27T04:38:06;16.4;15.4;11.6
74440;PMS7003;62870;54.692;25.284;2022-08-27T04:43:44;16.6;15.2;12
74440;PMS7003;62870;54.692;25.284;2022-08-27T04:48:39;16;15.6;11.8
74440;PMS7003;62870;54.692;25.284;2022-08-27T04:53:04;19.4;18.4;12.8
74440;PMS7003;62870;54.692;25.284;2022-08-27T04:58:16;19.4;19;14.4
74440;PMS7003;62870;54.692;25.284;2022-08-27T05:03:16;19.8;18.8;14
74440;PMS7003;62870;54.692;25.284;2022-08-27T05:08:40;18;16.6;12.2
74440;PMS7003;62870;54.692;25.284;2022-08-27T05:13:26;17.8;16.6;11.6
74440;PMS7003;62870;54.692;25.284;2022-08-27T05:18:40;15.4;15;11.4
74440;PMS7003;62870;54.692;25.284;2022-08-27T05:23:38;18;17.3;13
74440;PMS7003;62870;54.692;25.284;2022-08-27T05:28:24;15.6;15;11.6
74440;PMS7003;62870;54.692;25.284;2022-08-27T05:33:12;17;16.4;12.4
74440;PMS7003;62870;54.692;25.284;2022-08-27T05:38:28;18;16.8;12.4
74440;PMS7003;62870;54.692;25.284;2022-08-27T05:42:56;18;17;12.6
74440;PMS7003;62870;54.692;25.284;2022-08-27T05:47:56;19;17.6;13
74440;PMS7003;62870;54.692;25.284;2022-08-27T05:52:56;16.6;15.4;12
74440;PMS7003;62870;54.692;25.284;2022-08-27T05:58:42;17;16;11.6
74440;PMS7003;62870;54.692;25.284;2022-08-27T06:03:31;18;16;12.2
74440;PMS7003;62870;54.692;25.284;2022-08-27T06:08:20;21.2;19.4;13.6
74440;PMS7003;62870;54.692;25.284;2022-08-27T06:13:20;16.4;16.2;11.6
74440;PMS7003;62870;54.692;25.284;2022-08-27T06:18:32;18.8;18;12
74440;PMS7003;62870;54.692;25.284;2022-08-27T06:23:42;20;19;13.3
74440;PMS7003;62870;54.692;25.284;2022-08-27T06:28:19;17.4;16.4;12.4
74440;PMS7003;62870;54.692;25.284;2022-08-27T06:32:56;19;18.2;13.2
74440;PMS7003;62870;54.692;25.284;2022-08-27T06:37:56;21;19;13.8
74440;PMS7003;62870;54.692;25.284;2022-08-27T06:42:56;20;19;13.2
74440;PMS7003;62870;54.692;25.284;2022-08-27T06:48:18;19.8;17.8;13.4
74440;PMS7003;62870;54.692;25.284;2022-08-27T06:53:28;17.2;16;11.4
74440;PMS7003;62870;54.692;25.284;2022-08-27T06:58:28;17.8;17;12.4
74440;PMS7003;62870;54.692;25.284;2022-08-27T07:03:40;17.8;16.5;12.3
74440;PMS7003;62870;54.692;25.284;2022-08-27T07:08:20;17.2;16.2;11.4
74440;PMS7003;62870;54.692;25.284;2022-08-27T07:13:42;17.4;16.2;12.2
74440;PMS7003;62870;54.692;25.284;2022-08-27T07:18:42;17.5;16.3;11.5
74440;PMS7003;62870;54.692;25.284;2022-08-27T07:22:56;17.4;16;11.4
74440;PMS7003;62870;54.692;25.284;2022-08-27T07:27:56;15.6;14.4;11
74440;PMS7003;62870;54.692;25.284;2022-08-27T07:33:06;15.8;15;12
74440;PMS7003;62870;54.692;25.284;2022-08-27T07:38:44;15.8;15;11
74440;PMS7003;62870;54.692;25.284;2022-08-27T07:43:28;15.2;14.2;9.6
74440;PMS7003;62870;54.692;25.284;2022-08-27T07:48:32;16.6;15.2;10.2
74440;PMS7003;62870;54.692;25.284;2022-08-27T07:53:30;14.8;13.8;10.6
74440;PMS7003;62870;54.692;25.284;2022-08-27T07:58:30;14;13.8;10
74440;PMS7003;62870;54.692;25.284;2022-08-27T08:03:12;13;12.8;9.6
74440;PMS7003;62870;54.692;25.284;2022-08-27T08:08:26;13;12.2;9.4
74440;PMS7003;62870;54.692;25.284;2022-08-27T08:12:56;12.8;11.8;9.6
74440;PMS7003;62870;54.692;25.284;2022-08-27T08:17:56;10;9.8;7.8
74440;PMS7003;62870;54.692;25.284;2022-08-27T08:23:06;10.4;9.4;6.2
74440;PMS7003;62870;54.692;25.284;2022-08-27T08:28:44;11;11;8.6
74440;PMS7003;62870;54.692;25.284;2022-08-27T08:33:40;11.2;10.8;8
74440;PMS7003;62870;54.692;25.284;2022-08-27T08:38:08;11;9.6;6.8
74440;PMS7003;62870;54.692;25.284;2022-08-27T08:43:20;10.2;9.6;7.4
74440;PMS7003;62870;54.692;25.284;2022-08-27T08:48:30;11.2;10.6;8.4
74440;PMS7003;62870;54.692;25.284;2022-08-27T08:53:49;12.2;10.2;8
74440;PMS7003;62870;54.692;25.284;2022-08-27T08:58:20;12;11.2;8.8
74440;PMS7003;62870;54.692;25.284;2022-08-27T09:02:56;11.2;10.8;8.6
74440;PMS7003;62870;54.692;25.284;2022-08-27T09:08:15;13.2;12.4;9
74440;PMS7003;62870;54.692;25.284;2022-08-27T09:13:53;13.2;13.2;10
74440;PMS7003;62870;54.692;25.284;2022-08-27T09:18:18;12;11.5;8.8
74440;PMS7003;62870;54.692;25.284;2022-08-27T09:23:23;13;12.2;8.6
74440;PMS7003;62870;54.692;25.284;2022-08-27T09:28:42;11.6;11.2;8.4
74440;PMS7003;62870;54.692;25.284;2022-08-27T09:33:14;10.8;10;7.6
74440;PMS7003;62870;54.692;25.284;2022-08-27T09:38:28;13.2;12.4;8.8
74440;PMS7003;62870;54.692;25.284;2022-08-27T09:43:42;13.4;13.2;9.4
74440;PMS7003;62870;54.692;25.284;2022-08-27T09:48:29;13.6;12;9
74440;PMS7003;62870;54.692;25.284;2022-08-27T09:53:44;14.8;13.8;10
74440;PMS7003;62870;54.692;25.284;2022-08-27T09:58:31;14.6;14.4;10.4
74440;PMS7003;62870;54.692;25.284;2022-08-27T10:02:58;13.6;13.2;10
74440;PMS7003;62870;54.692;25.284;2022-08-27T10:08:42;15.4;14.8;10.2
74440;PMS7003;62870;54.692;25.284;2022-08-27T10:13:32;16.2;15.4;11
74440;PMS7003;62870;54.692;25.284;2022-08-27T10:18:23;17.8;16.8;12.5
74440;PMS7003;62870;54.692;25.284;2022-08-27T10:23:35;15.4;15;11.4
74440;PMS7003;62870;54.692;25.284;2022-08-27T10:38:38;16.8;16.4;11.8
74440;PMS7003;62870;54.692;25.284;2022-08-27T10:44:02;14.8;14;9.8
74440;PMS7003;62870;54.692;25.284;2022-08-27T10:48:20;14.8;14.4;11.8
74440;PMS7003;62870;54.692;25.284;2022-08-27T10:52:58;16.4;15.8;12.4
74440;PMS7003;62870;54.692;25.284;2022-08-27T10:58:52;14.8;14.2;10.6
74440;PMS7003;62870;54.692;25.284;2022-08-27T11:03:43;16.8;15.4;11.2
74440;PMS7003;62870;54.692;25.284;2022-08-27T11:08:49;15.6;14.4;11
74440;PMS7003;62870;54.692;25.284;2022-08-27T11:13:29;14.2;13;10
74440;PMS7003;62870;54.692;25.284;2022-08-27T11:18:46;14;13.4;9.8
74440;PMS7003;62870;54.692;25.284;2022-08-27T11:23:45;14;13.5;9.8
74440;PMS7003;62870;54.692;25.284;2022-08-27T11:28:19;16.4;16;11.6
74440;PMS7003;62870;54.692;25.284;2022-08-27T11:33:02;12.8;12.4;10
74440;PMS7003;62870;54.692;25.284;2022-08-27T11:38:09;12.6;11.8;9.2
74440;PMS7003;62870;54.692;25.284;2022-08-27T11:43:06;15.4;14.4;11
74440;PMS7003;62870;54.692;25.284;2022-08-27T11:48:22;13.4;12.6;9.4
74440;PMS7003;62870;54.692;25.284;2022-08-27T11:53:22;13.8;13.2;10
74440;PMS7003;62870;54.692;25.284;2022-08-27T11:58:46;14;12.8;9.4
74440;PMS7003;62870;54.692;25.284;2022-08-27T12:03:29;11.2;11;8
74440;PMS7003;62870;54.692;25.284;2022-08-27T12:07:56;12.2;12;9.2
74440;PMS7003;62870;54.692;25.284;2022-08-27T12:13:48;11.4;10.8;8.4
74440;PMS7003;62870;54.692;25.284;2022-08-27T12:18:44;15;13.8;10
74440;PMS7003;62870;54.692;25.284;2022-08-27T12:23:47;14.3;13.5;10.3
74440;PMS7003;62870;54.692;25.284;2022-08-27T12:28:06;13.6;13.2;10.2
74440;PMS7003;62870;54.692;25.284;2022-08-27T12:32:56;14.4;13.4;10.2
74440;PMS7003;62870;54.692;25.284;2022-08-27T12:38:47;14.4;13.2;10.4
74440;PMS7003;62870;54.692;25.284;2022-08-27T12:43:19;12.4;11.6;9.4
74440;PMS7003;62870;54.692;25.284;2022-08-27T12:48:07;14.4;13.4;9.8
74440;PMS7003;62870;54.692;25.284;2022-08-27T12:53:41;13;12.6;9.4
74440;PMS7003;62870;54.692;25.284;2022-08-27T12:58:19;13;12.4;9.2
74440;PMS7003;62870;54.692;25.284;2022-08-27T13:04:20;12.8;12.4;9.4
74440;PMS7003;62870;54.692;25.284;2022-08-27T13:08:19;13.2;12.8;9.4
74440;PMS7003;62870;54.692;25.284;2022-08-27T13:13:45;14.4;13.4;9.8
74440;PMS7003;62870;54.692;25.284;2022-08-27T13:17:56;13.2;12.2;9.6
74440;PMS7003;62870;54.692;25.284;2022-08-27T13:23:12;11.5;11.5;8.8
74440;PMS7003;62870;54.692;25.284;2022-08-27T13:27:58;12.8;12.4;9
74440;PMS7003;62870;54.692;25.284;2022-08-27T13:33:42;12.8;12.4;9.4
74440;PMS7003;62870;54.692;25.284;2022-08-27T13:38:30;11.8;11.4;8.4
74440;PMS7003;62870;54.692;25.284;2022-08-27T13:43:06;13.8;13.2;9.8
74440;PMS7003;62870;54.692;25.284;2022-08-27T13:48:20;13.2;13;9.8
74440;PMS7003;62870;54.692;25.284;2022-08-27T13:53:30;12.4;12;9
74440;PMS7003;62870;54.692;25.284;2022-08-27T13:58:30;13;12.2;9.6
74440;PMS7003;62870;54.692;25.284;2022-08-27T14:03:21;12.2;11.4;8.6
74440;PMS7003;62870;54.692;25.284;2022-08-27T14:07:57;13;11.8;8.8
74440;PMS7003;62870;54.692;25.284;2022-08-27T14:12:58;13.4;11.8;9.6
74440;PMS7003;62870;54.692;25.284;2022-08-27T14:18:07;14.2;13.4;9.8
74440;PMS7003;62870;54.692;25.284;2022-08-27T14:23:06;13;11.8;8.8
74440;PMS7003;62870;54.692;25.284;2022-08-27T14:28:26;15.2;13.8;10
74440;PMS7003;62870;54.692;25.284;2022-08-27T14:33:24;13.6;12.2;9.6
74440;PMS7003;62870;54.692;25.284;2022-08-27T14:38:41;14.6;13.8;10.6
74440;PMS7003;62870;54.692;25.284;2022-08-27T14:42:56;13.6;12.8;9.8
74440;PMS7003;62870;54.692;25.284;2022-08-27T14:48:42;14.6;13.6;9.6
74440;PMS7003;62870;54.692;25.284;2022-08-27T14:53:40;14.6;13.8;10.2
74440;PMS7003;62870;54.692;25.284;2022-08-27T14:58:20;14.6;13.8;10.6
74440;PMS7003;62870;54.692;25.284;2022-08-27T15:03:04;14.8;13.4;9
74440;PMS7003;62870;54.692;25.284;2022-08-27T15:07:56;12.4;11.8;8.6
74440;PMS7003;62870;54.692;25.284;2022-08-27T15:13:40;12.4;11.8;8.8
74440;PMS7003;62870;54.692;25.284;2022-08-27T15:18:18;13.6;12.4;8
74440;PMS7003;62870;54.692;25.284;2022-08-27T15:23:32;14.8;13.3;9.3
74440;PMS7003;62870;54.692;25.284;2022-08-27T15:28:32;12.6;11.8;8.8
74440;PMS7003;62870;54.692;25.284;2022-08-27T15:33:24;14.2;13;9.6
74440;PMS7003;62870;54.692;25.284;2022-08-27T15:38:14;14;12.8;10
74440;PMS7003;62870;54.692;25.284;2022-08-27T15:43:26;14.6;13.6;10.6
74440;PMS7003;62870;54.692;25.284;2022-08-27T15:48:20;12.6;11.4;9.2
74440;PMS7003;62870;54.692;25.284;2022-08-27T15:53:05;14.5;13.3;9.5
74440;PMS7003;62870;54.692;25.284;2022-08-27T15:57:56;14.2;13.8;10.4
74440;PMS7003;62870;54.692;25.284;2022-08-27T16:03:40;12.4;12;9.4
74440;PMS7003;62870;54.692;25.284;2022-08-27T16:08:30;14;12.4;9.2
74440;PMS7003;62870;54.692;25.284;2022-08-27T16:13:20;15.4;14.2;9.6
74440;PMS7003;62870;54.692;25.284;2022-08-27T16:18:20;14;12.8;9.8
74440;PMS7003;62870;54.692;25.284;2022-08-27T16:23:32;14.8;14;10.3
74440;PMS7003;62870;54.692;25.284;2022-08-27T16:28:40;14.2;12.8;9.4
74440;PMS7003;62870;54.692;25.284;2022-08-27T16:33:14;16;14.6;10.6
74440;PMS7003;62870;54.692;25.284;2022-08-27T16:37:56;15;14.8;11.2
74440;PMS7003;62870;54.692;25.284;2022-08-27T16:43:06;17.6;16.6;11.8
74440;PMS7003;62870;54.692;25.284;2022-08-27T16:48:06;17.6;16.2;11.6
74440;PMS7003;62870;54.692;25.284;2022-08-27T16:53:18;15.2;14.2;10.6
74440;PMS7003;62870;54.692;25.284;2022-08-27T16:58:19;16;14.4;11
74440;PMS7003;62870;54.692;25.284;2022-08-27T17:03:26;17.2;16;11.6
74440;PMS7003;62870;54.692;25.284;2022-08-27T17:08:42;18.8;17.6;11.8
74440;PMS7003;62870;54.692;25.284;2022-08-27T17:13:21;19.2;18;12.8
74440;PMS7003;62870;54.692;25.284;2022-08-27T17:18:44;20.6;18.8;12.8
74440;PMS7003;62870;54.692;25.284;2022-08-27T17:23:45;20.6;19;13.8
74440;PMS7003;62870;54.692;25.284;2022-08-27T17:28:06;22;20.5;14.3
74440;PMS7003;62870;54.692;25.284;2022-08-27T17:32:56;21.4;20.6;14.8
74440;PMS7003;62870;54.692;25.284;2022-08-27T17:37:56;19.8;18.8;14.2
74440;PMS7003;62870;54.692;25.284;2022-08-27T17:43:44;20.4;19.8;13.8
74440;PMS7003;62870;54.692;25.284;2022-08-27T17:48:28;23;21.2;14.4
74440;PMS7003;62870;54.692;25.284;2022-08-27T17:53:18;23;20.8;14.4
74440;PMS7003;62870;54.692;25.284;2022-08-27T17:58:30;24.4;23;15.4
74440;PMS7003;62870;54.692;25.284;2022-08-27T18:03:16;22.8;21.2;15
74440;PMS7003;62870;54.692;25.284;2022-08-27T18:08:16;23;21.4;15
74440;PMS7003;62870;54.692;25.284;2022-08-27T18:13:28;25;23.2;15.8
74440;PMS7003;62870;54.692;25.284;2022-08-27T18:18:32;25.6;24.6;17.2
74440;PMS7003;62870;54.692;25.284;2022-08-27T18:23:16;24.2;23.6;15.8
74440;PMS7003;62870;54.692;25.284;2022-08-27T18:28:08;25.5;22;16
74440;PMS7003;62870;54.692;25.284;2022-08-27T18:33:35;26;24.4;16.2
74440;PMS7003;62870;54.692;25.284;2022-08-27T18:38:42;26.4;23.8;15.8
74440;PMS7003;62870;54.692;25.284;2022-08-27T18:43:44;28;25.8;16.4
74440;PMS7003;62870;54.692;25.284;2022-08-27T18:48:20;24.4;23.2;16.4
74440;PMS7003;62870;54.692;25.284;2022-08-27T18:53:45;26.4;25;17.4
74440;PMS7003;62870;54.692;25.284;2022-08-27T18:58:44;26;25;17
74440;PMS7003;62870;54.692;25.284;2022-08-27T19:03:16;23.4;21.6;14.8
74440;PMS7003;62870;54.692;25.284;2022-08-27T19:08:18;26.4;24.2;15.2
74440;PMS7003;62870;54.692;25.284;2022-08-27T19:13:08;21.8;20;12.6
74440;PMS7003;62870;54.692;25.284;2022-08-27T19:18:06;23.4;21.6;14.8
74440;PMS7003;62870;54.692;25.284;2022-08-27T19:23:18;19.4;18.8;12.8
74440;PMS7003;62870;54.692;25.284;2022-08-27T19:28:19;18.8;17.8;12.3
74440;PMS7003;62870;54.692;25.284;2022-08-27T19:33:43;19.4;18;12.2
74440;PMS7003;62870;54.692;25.284;2022-08-27T19:38:30;19;18.2;12.8
74440;PMS7003;62870;54.692;25.284;2022-08-27T19:43:06;14.8;14.8;11.3
74440;PMS7003;62870;54.692;25.284;2022-08-27T19:48:44;15.4;15;10.4
74440;PMS7003;62870;54.692;25.284;2022-08-27T19:53:32;18.4;16.4;12
74440;PMS7003;62870;54.692;25.284;2022-08-27T19:58:46;15.2;15;11.2
74440;PMS7003;62870;54.692;25.284;2022-08-27T20:03:04;15;14.4;10.2
74440;PMS7003;62870;54.692;25.284;2022-08-27T20:08:06;14.8;13.6;10
74440;PMS7003;62870;54.692;25.284;2022-08-27T20:13:42;18.4;16.4;10.8
74440;PMS7003;62870;54.692;25.284;2022-08-27T20:18:28;18;16.6;11.6
74440;PMS7003;62870;54.692;25.284;2022-08-27T20:23:06;19.6;18;12.2
74440;PMS7003;62870;54.692;25.284;2022-08-27T20:28:28;16.6;15.8;11.6
74440;PMS7003;62870;54.692;25.284;2022-08-27T20:33:08;19.4;18.6;12.4
74440;PMS7003;62870;54.692;25.284;2022-08-27T20:38:20;14.8;14.3;11
74440;PMS7003;62870;54.692;25.284;2022-08-27T20:43:32;15.8;15.4;11.2
74440;PMS7003;62870;54.692;25.284;2022-08-27T20:48:44;16.8;16.2;11
74440;PMS7003;62870;54.692;25.284;2022-08-27T20:53:06;15.4;14.6;10
74440;PMS7003;62870;54.692;25.284;2022-08-27T20:57:56;16;14.6;11
74440;PMS7003;62870;54.692;25.284;2022-08-27T21:03:42;17.8;16.8;11.4
74440;PMS7003;62870;54.692;25.284;2022-08-27T21:08:44;16.2;15;11.2
74440;PMS7003;62870;54.692;25.284;2022-08-27T21:13:44;18.8;16.8;11.8
74440;PMS7003;62870;54.692;25.284;2022-08-27T21:18:20;15.2;13.8;10
74440;PMS7003;62870;54.692;25.284;2022-08-27T21:23:44;13.6;12.8;8.8
74440;PMS7003;62870;54.692;25.284;2022-08-27T21:28:44;14.6;14;9.6
74440;PMS7003;62870;54.692;25.284;2022-08-27T21:32:56;15.4;14.4;10
74440;PMS7003;62870;54.692;25.284;2022-08-27T21:38:16;16;14.8;10
74440;PMS7003;62870;54.692;25.284;2022-08-27T21:43:16;15;14.3;11
74440;PMS7003;62870;54.692;25.284;2022-08-27T21:48:04;16.6;15;10.8
74440;PMS7003;62870;54.692;25.284;2022-08-27T21:53:18;14.8;14.2;10.4
74440;PMS7003;62870;54.692;25.284;2022-08-27T21:57:54;15.8;14;10
74440;PMS7003;62870;54.692;25.284;2022-08-27T22:03:15;14.4;13.4;9.6
74440;PMS7003;62870;54.692;25.284;2022-08-27T22:08:26;14.4;13.6;10.2
74440;PMS7003;62870;54.692;25.284;2022-08-27T22:13:28;15.2;14;9.6
74440;PMS7003;62870;54.692;25.284;2022-08-27T22:18:20;14.6;13.6;10.4
74440;PMS7003;62870;54.692;25.284;2022-08-27T22:23:42;15.8;15;10.4
74440;PMS7003;62870;54.692;25.284;2022-08-27T22:28:44;15.8;14.8;10.8
74440;PMS7003;62870;54.692;25.284;2022-08-27T22:33:08;16.6;15.6;11.4
74440;PMS7003;62870;54.692;25.284;2022-08-27T22:38:16;18.8;17.8;12.8
74440;PMS7003;62870;54.692;25.284;2022-08-27T22:42:56;22.8;20.5;14.5
74440;PMS7003;62870;54.692;25.284;2022-08-27T22:48:40;21.4;20.4;14.4
74440;PMS7003;62870;54.692;25.284;2022-08-27T22:53:18;22;20.8;14.4
74440;PMS7003;62870;54.692;25.284;2022-08-27T22:58:30;20.2;19.2;14.4
74440;PMS7003;62870;54.692;25.284;2022-08-27T23:03:26;20.8;20.6;14.2
74440;PMS7003;62870;54.692;25.284;2022-08-27T23:08:24;22;20.8;14
74440;PMS7003;62870;54.692;25.284;2022-08-27T23:13:16;22;19.6;14
74440;PMS7003;62870;54.692;25.284;2022-08-27T23:18:26;20.6;18.8;13
74440;PMS7003;62870;54.692;25.284;2022-08-27T23:23:04;20.6;19;13
74440;PMS7003;62870;54.692;25.284;2022-08-27T23:27:54;17.8;17.2;12.2
74440;PMS7003;62870;54.692;25.284;2022-08-27T23:33:02;18;15.8;11.6
74440;PMS7003;62870;54.692;25.284;2022-08-27T23:38:40;17.2;16.4;11.8
74440;PMS7003;62870;54.692;25.284;2022-08-27T23:43:28;17.5;16.5;12
74440;PMS7003;62870;54.692;25.284;2022-08-27T23:48:06;18.6;18.4;13.2
74440;PMS7003;62870;54.692;25.284;2022-08-27T23:53:18;19;17.2;12.4
74440;PMS7003;62870;54.692;25.284;2022-08-27T23:58:30;16.8;16;12.6
